sensor_id;sensor_type;location;lat;lon;timestamp;P1;durP1;ratioP1;P2;durP2;ratioP2
66559;SDS011;53413;49.878;8.142;2024-01-27T00:01:23;6.03;;;1.90;;
66559;SDS011;53413;49.878;8.142;2024-01-27T00:03:49;7.70;;;1.93;;
66559;SDS011;53413;49.878;8.142;2024-01-27T00:06:15;6.50;;;1.50;;
66559;SDS011;53413;49.878;8.142;2024-01-27T00:08:40;6.20;;;1.87;;
66559;SDS011;53413;49.878;8.142;2024-01-27T00:11:06;6.07;;;1.90;;
66559;SDS011;53413;49.878;8.142;2024-01-27T00:13:31;5.37;;;1.43;;
66559;SDS011;53413;49.878;8.142;2024-01-27T00:15:56;7.20;;;1.50;;
66559;SDS011;53413;49.878;8.142;2024-01-27T00:18:22;6.57;;;1.30;;
66559;SDS011;53413;49.878;8.142;2024-01-27T00:20:48;7.07;;;1.40;;
66559;SDS011;53413;49.878;8.142;2024-01-27T00:23:13;6.13;;;1.33;;
66559;SDS011;53413;49.878;8.142;2024-01-27T00:25:39;5.63;;;1.30;;
66559;SDS011;53413;49.878;8.142;2024-01-27T00:28:04;7.23;;;1.33;;
66559;SDS011;53413;49.878;8.142;2024-01-27T00:30:30;7.57;;;1.37;;
66559;SDS011;53413;49.878;8.142;2024-01-27T00:32:55;6.73;;;1.50;;
66559;SDS011;53413;49.878;8.142;2024-01-27T00:35:20;7.07;;;1.50;;
66559;SDS011;53413;49.878;8.142;2024-01-27T00:37:46;7.95;;;1.33;;
66559;SDS011;53413;49.878;8.142;2024-01-27T00:40:11;8.83;;;1.40;;
66559;SDS011;53413;49.878;8.142;2024-01-27T00:42:37;6.63;;;1.27;;
66559;SDS011;53413;49.878;8.142;2024-01-27T00:45:04;4.27;;;1.00;;
66559;SDS011;53413;49.878;8.142;2024-01-27T00:47:30;5.80;;;1.17;;
66559;SDS011;53413;49.878;8.142;2024-01-27T00:49:56;5.45;;;1.20;;
66559;SDS011;53413;49.878;8.142;2024-01-27T00:52:21;6.10;;;1.25;;
66559;SDS011;53413;49.878;8.142;2024-01-27T00:54:46;4.97;;;1.10;;
66559;SDS011;53413;49.878;8.142;2024-01-27T00:57:12;6.90;;;1.33;;
66559;SDS011;53413;49.878;8.142;2024-01-27T00:59:37;5.73;;;1.40;;
66559;SDS011;53413;49.878;8.142;2024-01-27T01:02:03;5.22;;;1.30;;
66559;SDS011;53413;49.878;8.142;2024-01-27T01:04:29;8.77;;;1.27;;
66559;SDS011;53413;49.878;8.142;2024-01-27T01:06:54;7.27;;;1.40;;
66559;SDS011;53413;49.878;8.142;2024-01-27T01:09:20;6.25;;;1.00;;
66559;SDS011;53413;49.878;8.142;2024-01-27T01:11:45;6.03;;;1.10;;
66559;SDS011;53413;49.878;8.142;2024-01-27T01:14:11;6.83;;;1.30;;
66559;SDS011;53413;49.878;8.142;2024-01-27T01:16:36;5.13;;;1.27;;
66559;SDS011;53413;49.878;8.142;2024-01-27T01:19:01;7.83;;;1.23;;
66559;SDS011;53413;49.878;8.142;2024-01-27T01:21:27;4.30;;;1.07;;
66559;SDS011;53413;49.878;8.142;2024-01-27T01:23:53;5.00;;;1.30;;
66559;SDS011;53413;49.878;8.142;2024-01-27T01:26:18;7.20;;;1.20;;
66559;SDS011;53413;49.878;8.142;2024-01-27T01:28:44;6.15;;;1.20;;
66559;SDS011;53413;49.878;8.142;2024-01-27T01:31:09;6.17;;;0.97;;
66559;SDS011;53413;49.878;8.142;2024-01-27T01:33:34;6.13;;;1.10;;
66559;SDS011;53413;49.878;8.142;2024-01-27T01:36:00;7.87;;;1.40;;
66559;SDS011;53413;49.878;8.142;2024-01-27T01:38:25;7.70;;;1.10;;
66559;SDS011;53413;49.878;8.142;2024-01-27T01:40:51;4.90;;;1.10;;
66559;SDS011;53413;49.878;8.142;2024-01-27T01:43:16;7.17;;;1.30;;
66559;SDS011;53413;49.878;8.142;2024-01-27T01:45:41;8.93;;;1.20;;
66559;SDS011;53413;49.878;8.142;2024-01-27T01:48:07;8.87;;;1.20;;
66559;SDS011;53413;49.878;8.142;2024-01-27T01:50:33;6.50;;;1.70;;
66559;SDS011;53413;49.878;8.142;2024-01-27T01:52:58;7.22;;;1.63;;
66559;SDS011;53413;49.878;8.142;2024-01-27T01:55:24;7.10;;;1.70;;
66559;SDS011;53413;49.878;8.142;2024-01-27T01:57:49;5.93;;;1.57;;
66559;SDS011;53413;49.878;8.142;2024-01-27T02:00:16;5.57;;;1.63;;
66559;SDS011;53413;49.878;8.142;2024-01-27T02:02:44;12.50;;;1.70;;
66559;SDS011;53413;49.878;8.142;2024-01-27T02:05:11;7.57;;;1.57;;
66559;SDS011;53413;49.878;8.142;2024-01-27T02:07:37;5.90;;;1.30;;
66559;SDS011;53413;49.878;8.142;2024-01-27T02:10:02;6.63;;;1.73;;
66559;SDS011;53413;49.878;8.142;2024-01-27T02:12:28;5.22;;;1.50;;
66559;SDS011;53413;49.878;8.142;2024-01-27T02:14:54;8.87;;;1.57;;
66559;SDS011;53413;49.878;8.142;2024-01-27T02:17:19;7.60;;;1.70;;
66559;SDS011;53413;49.878;8.142;2024-01-27T02:19:45;5.38;;;1.50;;
66559;SDS011;53413;49.878;8.142;2024-01-27T02:22:10;10.37;;;1.70;;
66559;SDS011;53413;49.878;8.142;2024-01-27T02:24:35;4.17;;;1.10;;
66559;SDS011;53413;49.878;8.142;2024-01-27T02:27:01;7.03;;;1.33;;
66559;SDS011;53413;49.878;8.142;2024-01-27T02:29:26;5.63;;;1.40;;
66559;SDS011;53413;49.878;8.142;2024-01-27T02:31:53;8.23;;;1.55;;
66559;SDS011;53413;49.878;8.142;2024-01-27T02:34:19;4.53;;;1.27;;
66559;SDS011;53413;49.878;8.142;2024-01-27T02:36:44;7.10;;;1.57;;
66559;SDS011;53413;49.878;8.142;2024-01-27T02:39:10;7.00;;;1.63;;
66559;SDS011;53413;49.878;8.142;2024-01-27T02:41:35;6.83;;;1.50;;
66559;SDS011;53413;49.878;8.142;2024-01-27T02:44:04;9.43;;;1.75;;
66559;SDS011;53413;49.878;8.142;2024-01-27T02:46:30;7.93;;;1.45;;
66559;SDS011;53413;49.878;8.142;2024-01-27T02:48:55;7.60;;;1.53;;
66559;SDS011;53413;49.878;8.142;2024-01-27T02:51:21;7.93;;;1.50;;
66559;SDS011;53413;49.878;8.142;2024-01-27T02:53:46;6.33;;;1.53;;
66559;SDS011;53413;49.878;8.142;2024-01-27T02:56:11;9.25;;;1.63;;
66559;SDS011;53413;49.878;8.142;2024-01-27T02:58:37;6.22;;;1.42;;
66559;SDS011;53413;49.878;8.142;2024-01-27T03:01:02;7.70;;;1.70;;
66559;SDS011;53413;49.878;8.142;2024-01-27T03:03:28;7.03;;;1.50;;
66559;SDS011;53413;49.878;8.142;2024-01-27T03:05:54;6.10;;;1.45;;
66559;SDS011;53413;49.878;8.142;2024-01-27T03:08:19;6.87;;;1.50;;
66559;SDS011;53413;49.878;8.142;2024-01-27T03:10:45;4.50;;;1.13;;
66559;SDS011;53413;49.878;8.142;2024-01-27T03:13:10;10.38;;;2.00;;
66559;SDS011;53413;49.878;8.142;2024-01-27T03:15:36;7.87;;;1.87;;
66559;SDS011;53413;49.878;8.142;2024-01-27T03:18:02;5.50;;;1.47;;
66559;SDS011;53413;49.878;8.142;2024-01-27T03:20:28;6.65;;;1.58;;
66559;SDS011;53413;49.878;8.142;2024-01-27T03:22:56;7.70;;;1.60;;
66559;SDS011;53413;49.878;8.142;2024-01-27T03:25:21;9.67;;;1.60;;
66559;SDS011;53413;49.878;8.142;2024-01-27T03:27:46;5.90;;;1.77;;
66559;SDS011;53413;49.878;8.142;2024-01-27T03:30:12;7.50;;;1.70;;
66559;SDS011;53413;49.878;8.142;2024-01-27T03:32:37;5.73;;;1.70;;
66559;SDS011;53413;49.878;8.142;2024-01-27T03:35:03;7.87;;;1.70;;
66559;SDS011;53413;49.878;8.142;2024-01-27T03:37:29;6.22;;;1.60;;
66559;SDS011;53413;49.878;8.142;2024-01-27T03:39:54;9.10;;;1.63;;
66559;SDS011;53413;49.878;8.142;2024-01-27T03:42:20;7.47;;;1.83;;
66559;SDS011;53413;49.878;8.142;2024-01-27T03:44:46;7.67;;;1.60;;
66559;SDS011;53413;49.878;8.142;2024-01-27T03:47:11;7.13;;;1.43;;
66559;SDS011;53413;49.878;8.142;2024-01-27T03:49:36;9.23;;;1.60;;
66559;SDS011;53413;49.878;8.142;2024-01-27T03:52:02;6.28;;;1.70;;
66559;SDS011;53413;49.878;8.142;2024-01-27T03:54:28;6.80;;;1.53;;
66559;SDS011;53413;49.878;8.142;2024-01-27T03:56:54;6.40;;;1.77;;
66559;SDS011;53413;49.878;8.142;2024-01-27T03:59:19;6.18;;;1.70;;
66559;SDS011;53413;49.878;8.142;2024-01-27T04:01:44;6.80;;;1.80;;
66559;SDS011;53413;49.878;8.142;2024-01-27T04:04:10;7.07;;;1.67;;
66559;SDS011;53413;49.878;8.142;2024-01-27T04:06:36;5.68;;;1.60;;
66559;SDS011;53413;49.878;8.142;2024-01-27T04:09:04;6.22;;;1.50;;
66559;SDS011;53413;49.878;8.142;2024-01-27T04:11:30;6.60;;;1.70;;
66559;SDS011;53413;49.878;8.142;2024-01-27T04:13:55;7.57;;;1.83;;
66559;SDS011;53413;49.878;8.142;2024-01-27T04:16:20;5.43;;;1.80;;
66559;SDS011;53413;49.878;8.142;2024-01-27T04:18:46;8.20;;;1.90;;
66559;SDS011;53413;49.878;8.142;2024-01-27T04:21:11;6.87;;;1.83;;
66559;SDS011;53413;49.878;8.142;2024-01-27T04:23:37;5.97;;;1.43;;
66559;SDS011;53413;49.878;8.142;2024-01-27T04:26:02;11.67;;;1.97;;
66559;SDS011;53413;49.878;8.142;2024-01-27T04:28:27;4.70;;;1.30;;
66559;SDS011;53413;49.878;8.142;2024-01-27T04:30:55;7.20;;;1.53;;
66559;SDS011;53413;49.878;8.142;2024-01-27T04:33:20;8.32;;;1.73;;
66559;SDS011;53413;49.878;8.142;2024-01-27T04:35:46;8.38;;;1.95;;
66559;SDS011;53413;49.878;8.142;2024-01-27T04:38:11;8.47;;;1.83;;
66559;SDS011;53413;49.878;8.142;2024-01-27T04:40:36;6.70;;;1.63;;
66559;SDS011;53413;49.878;8.142;2024-01-27T04:43:02;7.30;;;1.63;;
66559;SDS011;53413;49.878;8.142;2024-01-27T04:45:28;10.27;;;1.75;;
66559;SDS011;53413;49.878;8.142;2024-01-27T04:47:53;6.50;;;1.60;;
66559;SDS011;53413;49.878;8.142;2024-01-27T04:50:19;9.37;;;1.90;;
66559;SDS011;53413;49.878;8.142;2024-01-27T04:52:45;9.82;;;1.75;;
66559;SDS011;53413;49.878;8.142;2024-01-27T04:55:10;4.93;;;1.63;;
66559;SDS011;53413;49.878;8.142;2024-01-27T04:57:36;10.00;;;1.90;;
66559;SDS011;53413;49.878;8.142;2024-01-27T05:00:01;7.50;;;1.35;;
66559;SDS011;53413;49.878;8.142;2024-01-27T05:02:27;5.50;;;1.57;;
66559;SDS011;53413;49.878;8.142;2024-01-27T05:04:53;5.13;;;1.83;;
66559;SDS011;53413;49.878;8.142;2024-01-27T05:07:18;6.00;;;1.58;;
66559;SDS011;53413;49.878;8.142;2024-01-27T05:09:43;8.13;;;1.70;;
66559;SDS011;53413;49.878;8.142;2024-01-27T05:12:09;7.17;;;1.50;;
66559;SDS011;53413;49.878;8.142;2024-01-27T05:14:34;4.87;;;1.47;;
66559;SDS011;53413;49.878;8.142;2024-01-27T05:16:59;5.30;;;1.70;;
66559;SDS011;53413;49.878;8.142;2024-01-27T05:19:25;6.70;;;1.70;;
66559;SDS011;53413;49.878;8.142;2024-01-27T05:21:50;5.77;;;1.60;;
66559;SDS011;53413;49.878;8.142;2024-01-27T05:24:15;6.60;;;1.60;;
66559;SDS011;53413;49.878;8.142;2024-01-27T05:26:41;6.43;;;1.90;;
66559;SDS011;53413;49.878;8.142;2024-01-27T05:29:06;6.67;;;1.83;;
66559;SDS011;53413;49.878;8.142;2024-01-27T05:31:31;8.33;;;1.73;;
66559;SDS011;53413;49.878;8.142;2024-01-27T05:33:57;8.73;;;1.90;;
66559;SDS011;53413;49.878;8.142;2024-01-27T05:36:22;8.57;;;1.57;;
66559;SDS011;53413;49.878;8.142;2024-01-27T05:38:47;9.60;;;1.60;;
66559;SDS011;53413;49.878;8.142;2024-01-27T05:41:13;6.73;;;1.53;;
66559;SDS011;53413;49.878;8.142;2024-01-27T05:43:39;8.27;;;2.22;;
66559;SDS011;53413;49.878;8.142;2024-01-27T05:46:04;7.67;;;1.77;;
66559;SDS011;53413;49.878;8.142;2024-01-27T05:48:30;7.28;;;1.70;;
66559;SDS011;53413;49.878;8.142;2024-01-27T05:50:56;9.47;;;1.67;;
66559;SDS011;53413;49.878;8.142;2024-01-27T05:53:22;7.07;;;1.67;;
66559;SDS011;53413;49.878;8.142;2024-01-27T05:55:47;8.27;;;1.60;;
66559;SDS011;53413;49.878;8.142;2024-01-27T05:58:13;7.03;;;1.50;;
66559;SDS011;53413;49.878;8.142;2024-01-27T06:00:38;5.77;;;1.40;;
66559;SDS011;53413;49.878;8.142;2024-01-27T06:03:04;6.68;;;1.60;;
66559;SDS011;53413;49.878;8.142;2024-01-27T06:05:29;5.50;;;1.50;;
66559;SDS011;53413;49.878;8.142;2024-01-27T06:07:55;9.13;;;1.70;;
66559;SDS011;53413;49.878;8.142;2024-01-27T06:10:20;8.13;;;1.70;;
66559;SDS011;53413;49.878;8.142;2024-01-27T06:12:46;7.95;;;1.75;;
66559;SDS011;53413;49.878;8.142;2024-01-27T06:15:11;7.90;;;1.63;;
66559;SDS011;53413;49.878;8.142;2024-01-27T06:17:37;8.70;;;2.00;;
66559;SDS011;53413;49.878;8.142;2024-01-27T06:20:03;8.60;;;1.53;;
66559;SDS011;53413;49.878;8.142;2024-01-27T06:22:29;7.73;;;1.30;;
66559;SDS011;53413;49.878;8.142;2024-01-27T06:24:56;6.38;;;1.40;;
66559;SDS011;53413;49.878;8.142;2024-01-27T06:27:21;5.97;;;1.60;;
66559;SDS011;53413;49.878;8.142;2024-01-27T06:29:47;6.82;;;1.70;;
66559;SDS011;53413;49.878;8.142;2024-01-27T06:32:12;9.55;;;1.80;;
66559;SDS011;53413;49.878;8.142;2024-01-27T06:34:38;5.30;;;1.50;;
66559;SDS011;53413;49.878;8.142;2024-01-27T06:37:03;9.20;;;1.77;;
66559;SDS011;53413;49.878;8.142;2024-01-27T06:39:29;9.35;;;1.52;;
66559;SDS011;53413;49.878;8.142;2024-01-27T06:41:55;13.37;;;1.77;;
66559;SDS011;53413;49.878;8.142;2024-01-27T06:44:20;7.03;;;1.80;;
66559;SDS011;53413;49.878;8.142;2024-01-27T06:46:46;7.00;;;1.60;;
66559;SDS011;53413;49.878;8.142;2024-01-27T06:49:14;7.00;;;1.50;;
66559;SDS011;53413;49.878;8.142;2024-01-27T06:51:40;7.15;;;1.73;;
66559;SDS011;53413;49.878;8.142;2024-01-27T06:54:05;6.67;;;1.67;;
66559;SDS011;53413;49.878;8.142;2024-01-27T06:56:31;4.00;;;1.33;;
66559;SDS011;53413;49.878;8.142;2024-01-27T06:58:56;5.20;;;1.40;;
66559;SDS011;53413;49.878;8.142;2024-01-27T07:01:21;6.53;;;1.60;;
66559;SDS011;53413;49.878;8.142;2024-01-27T07:03:47;8.37;;;1.50;;
66559;SDS011;53413;49.878;8.142;2024-01-27T07:06:12;15.00;;;1.80;;
66559;SDS011;53413;49.878;8.142;2024-01-27T07:08:37;5.13;;;1.52;;
66559;SDS011;53413;49.878;8.142;2024-01-27T07:11:03;4.77;;;1.50;;
66559;SDS011;53413;49.878;8.142;2024-01-27T07:13:28;6.93;;;1.57;;
66559;SDS011;53413;49.878;8.142;2024-01-27T07:15:55;6.90;;;1.50;;
66559;SDS011;53413;49.878;8.142;2024-01-27T07:18:21;10.13;;;1.77;;
66559;SDS011;53413;49.878;8.142;2024-01-27T07:20:47;6.88;;;1.70;;
66559;SDS011;53413;49.878;8.142;2024-01-27T07:23:12;6.83;;;1.73;;
66559;SDS011;53413;49.878;8.142;2024-01-27T07:25:38;8.77;;;2.00;;
66559;SDS011;53413;49.878;8.142;2024-01-27T07:28:03;8.85;;;1.65;;
66559;SDS011;53413;49.878;8.142;2024-01-27T07:30:29;9.40;;;2.20;;
66559;SDS011;53413;49.878;8.142;2024-01-27T07:32:55;9.07;;;1.73;;
66559;SDS011;53413;49.878;8.142;2024-01-27T07:35:21;6.90;;;1.90;;
66559;SDS011;53413;49.878;8.142;2024-01-27T07:37:46;7.17;;;1.90;;
66559;SDS011;53413;49.878;8.142;2024-01-27T07:40:11;6.07;;;1.90;;
66559;SDS011;53413;49.878;8.142;2024-01-27T07:42:37;7.55;;;1.88;;
66559;SDS011;53413;49.878;8.142;2024-01-27T07:45:02;13.60;;;3.17;;
66559;SDS011;53413;49.878;8.142;2024-01-27T07:47:28;7.23;;;2.50;;
66559;SDS011;53413;49.878;8.142;2024-01-27T07:49:53;11.20;;;2.73;;
66559;SDS011;53413;49.878;8.142;2024-01-27T07:52:19;9.52;;;2.10;;
66559;SDS011;53413;49.878;8.142;2024-01-27T07:54:45;9.25;;;1.85;;
66559;SDS011;53413;49.878;8.142;2024-01-27T07:57:10;9.60;;;2.13;;
66559;SDS011;53413;49.878;8.142;2024-01-27T07:59:37;6.05;;;2.15;;
66559;SDS011;53413;49.878;8.142;2024-01-27T08:02:02;11.68;;;2.70;;
66559;SDS011;53413;49.878;8.142;2024-01-27T08:04:28;9.52;;;2.85;;
66559;SDS011;53413;49.878;8.142;2024-01-27T08:06:53;6.27;;;2.30;;
66559;SDS011;53413;49.878;8.142;2024-01-27T08:09:18;8.73;;;2.30;;
66559;SDS011;53413;49.878;8.142;2024-01-27T08:11:44;8.32;;;2.20;;
66559;SDS011;53413;49.878;8.142;2024-01-27T08:14:10;8.80;;;2.60;;
66559;SDS011;53413;49.878;8.142;2024-01-27T08:16:35;6.73;;;2.47;;
66559;SDS011;53413;49.878;8.142;2024-01-27T08:19:01;8.53;;;2.50;;
66559;SDS011;53413;49.878;8.142;2024-01-27T08:21:26;7.95;;;2.35;;
66559;SDS011;53413;49.878;8.142;2024-01-27T08:23:52;6.10;;;2.37;;
66559;SDS011;53413;49.878;8.142;2024-01-27T08:26:18;6.15;;;2.55;;
66559;SDS011;53413;49.878;8.142;2024-01-27T08:28:45;6.53;;;2.43;;
66559;SDS011;53413;49.878;8.142;2024-01-27T08:31:11;5.07;;;2.47;;
66559;SDS011;53413;49.878;8.142;2024-01-27T08:33:36;6.90;;;2.80;;
66559;SDS011;53413;49.878;8.142;2024-01-27T08:36:02;7.07;;;2.63;;
66559;SDS011;53413;49.878;8.142;2024-01-27T08:38:27;7.65;;;2.72;;
66559;SDS011;53413;49.878;8.142;2024-01-27T08:40:53;6.53;;;2.97;;
66559;SDS011;53413;49.878;8.142;2024-01-27T08:43:18;6.87;;;3.10;;
66559;SDS011;53413;49.878;8.142;2024-01-27T08:45:44;7.03;;;3.03;;
66559;SDS011;53413;49.878;8.142;2024-01-27T08:48:09;7.05;;;2.45;;
66559;SDS011;53413;49.878;8.142;2024-01-27T08:50:36;9.43;;;3.25;;
66559;SDS011;53413;49.878;8.142;2024-01-27T08:53:02;8.57;;;3.28;;
66559;SDS011;53413;49.878;8.142;2024-01-27T08:55:27;7.80;;;3.40;;
66559;SDS011;53413;49.878;8.142;2024-01-27T08:57:52;7.23;;;3.40;;
66559;SDS011;53413;49.878;8.142;2024-01-27T09:00:18;6.20;;;3.03;;
66559;SDS011;53413;49.878;8.142;2024-01-27T09:02:44;7.30;;;3.70;;
66559;SDS011;53413;49.878;8.142;2024-01-27T09:05:10;7.22;;;3.55;;
66559;SDS011;53413;49.878;8.142;2024-01-27T09:07:35;7.80;;;3.40;;
66559;SDS011;53413;49.878;8.142;2024-01-27T09:10:01;7.40;;;3.40;;
66559;SDS011;53413;49.878;8.142;2024-01-27T09:12:27;6.85;;;3.30;;
66559;SDS011;53413;49.878;8.142;2024-01-27T09:14:52;6.87;;;3.23;;
66559;SDS011;53413;49.878;8.142;2024-01-27T09:17:19;7.85;;;3.42;;
66559;SDS011;53413;49.878;8.142;2024-01-27T09:19:45;7.57;;;3.53;;
66559;SDS011;53413;49.878;8.142;2024-01-27T09:22:10;8.43;;;3.70;;
66559;SDS011;53413;49.878;8.142;2024-01-27T09:24:35;7.57;;;3.87;;
66559;SDS011;53413;49.878;8.142;2024-01-27T09:27:01;7.90;;;4.20;;
66559;SDS011;53413;49.878;8.142;2024-01-27T09:29:27;10.32;;;6.68;;
66559;SDS011;53413;49.878;8.142;2024-01-27T09:31:52;13.97;;;9.17;;
66559;SDS011;53413;49.878;8.142;2024-01-27T09:34:17;8.53;;;5.07;;
66559;SDS011;53413;49.878;8.142;2024-01-27T09:36:43;10.67;;;6.83;;
66559;SDS011;53413;49.878;8.142;2024-01-27T09:39:08;9.60;;;4.00;;
66559;SDS011;53413;49.878;8.142;2024-01-27T09:41:34;9.77;;;4.75;;
66559;SDS011;53413;49.878;8.142;2024-01-27T09:44:00;9.60;;;5.00;;
66559;SDS011;53413;49.878;8.142;2024-01-27T09:46:28;9.20;;;4.60;;
66559;SDS011;53413;49.878;8.142;2024-01-27T09:48:54;9.52;;;3.95;;
66559;SDS011;53413;49.878;8.142;2024-01-27T09:51:19;8.00;;;4.90;;
66559;SDS011;53413;49.878;8.142;2024-01-27T09:53:45;10.23;;;4.90;;
66559;SDS011;53413;49.878;8.142;2024-01-27T09:56:10;7.60;;;4.20;;
66559;SDS011;53413;49.878;8.142;2024-01-27T09:58:42;8.10;;;3.90;;
66559;SDS011;53413;49.878;8.142;2024-01-27T10:01:08;10.53;;;4.20;;
66559;SDS011;53413;49.878;8.142;2024-01-27T10:03:33;8.27;;;3.00;;
66559;SDS011;53413;49.878;8.142;2024-01-27T10:05:59;9.27;;;2.60;;
66559;SDS011;53413;49.878;8.142;2024-01-27T10:08:26;11.00;;;2.78;;
66559;SDS011;53413;49.878;8.142;2024-01-27T10:10:53;7.33;;;2.60;;
66559;SDS011;53413;49.878;8.142;2024-01-27T10:13:20;7.57;;;2.20;;
66559;SDS011;53413;49.878;8.142;2024-01-27T10:18:27;6.75;;;2.40;;
66559;SDS011;53413;49.878;8.142;2024-01-27T10:20:53;8.10;;;3.17;;
66559;SDS011;53413;49.878;8.142;2024-01-27T10:23:18;7.47;;;2.23;;
66559;SDS011;53413;49.878;8.142;2024-01-27T10:25:44;7.03;;;2.20;;
66559;SDS011;53413;49.878;8.142;2024-01-27T10:28:09;7.30;;;2.67;;
66559;SDS011;53413;49.878;8.142;2024-01-27T10:30:35;8.63;;;2.67;;
66559;SDS011;53413;49.878;8.142;2024-01-27T10:33:01;7.18;;;2.70;;
66559;SDS011;53413;49.878;8.142;2024-01-27T10:35:27;6.38;;;2.03;;
66559;SDS011;53413;49.878;8.142;2024-01-27T10:37:53;9.53;;;2.20;;
66559;SDS011;53413;49.878;8.142;2024-01-27T10:40:19;7.05;;;2.35;;
66559;SDS011;53413;49.878;8.142;2024-01-27T10:42:45;7.07;;;1.90;;
66559;SDS011;53413;49.878;8.142;2024-01-27T10:45:12;7.72;;;2.50;;
66559;SDS011;53413;49.878;8.142;2024-01-27T10:47:39;9.60;;;2.90;;
66559;SDS011;53413;49.878;8.142;2024-01-27T10:50:08;5.43;;;1.80;;
66559;SDS011;53413;49.878;8.142;2024-01-27T10:52:37;6.45;;;1.95;;
66559;SDS011;53413;49.878;8.142;2024-01-27T10:55:04;8.02;;;2.25;;
66559;SDS011;53413;49.878;8.142;2024-01-27T10:57:35;10.93;;;2.85;;
66559;SDS011;53413;49.878;8.142;2024-01-27T11:00:03;9.77;;;1.67;;
66559;SDS011;53413;49.878;8.142;2024-01-27T11:02:34;6.63;;;1.83;;
66559;SDS011;53413;49.878;8.142;2024-01-27T11:05:00;7.75;;;1.83;;
66559;SDS011;53413;49.878;8.142;2024-01-27T11:07:28;7.03;;;1.63;;
66559;SDS011;53413;49.878;8.142;2024-01-27T11:09:59;7.60;;;1.75;;
66559;SDS011;53413;49.878;8.142;2024-01-27T11:12:25;8.80;;;2.20;;
66559;SDS011;53413;49.878;8.142;2024-01-27T11:14:51;7.22;;;2.00;;
66559;SDS011;53413;49.878;8.142;2024-01-27T11:17:18;6.55;;;1.70;;
66559;SDS011;53413;49.878;8.142;2024-01-27T11:19:46;10.27;;;1.80;;
66559;SDS011;53413;49.878;8.142;2024-01-27T11:22:27;9.15;;;2.60;;
66559;SDS011;53413;49.878;8.142;2024-01-27T11:27:41;4.65;;;1.55;;
66559;SDS011;53413;49.878;8.142;2024-01-27T11:30:12;8.60;;;2.00;;
66559;SDS011;53413;49.878;8.142;2024-01-27T11:32:49;7.30;;;1.73;;
66559;SDS011;53413;49.878;8.142;2024-01-27T11:35:16;7.53;;;1.60;;
66559;SDS011;53413;49.878;8.142;2024-01-27T11:37:42;8.93;;;2.00;;
66559;SDS011;53413;49.878;8.142;2024-01-27T11:40:08;7.18;;;1.70;;
66559;SDS011;53413;49.878;8.142;2024-01-27T11:42:34;7.15;;;1.88;;
66559;SDS011;53413;49.878;8.142;2024-01-27T11:44:59;8.70;;;1.90;;
66559;SDS011;53413;49.878;8.142;2024-01-27T11:47:25;9.67;;;1.97;;
66559;SDS011;53413;49.878;8.142;2024-01-27T11:49:51;7.72;;;1.40;;
66559;SDS011;53413;49.878;8.142;2024-01-27T11:52:18;6.60;;;2.30;;
66559;SDS011;53413;49.878;8.142;2024-01-27T11:54:44;10.30;;;2.67;;
66559;SDS011;53413;49.878;8.142;2024-01-27T11:57:09;5.70;;;1.73;;
66559;SDS011;53413;49.878;8.142;2024-01-27T11:59:35;7.87;;;1.93;;
66559;SDS011;53413;49.878;8.142;2024-01-27T12:02:01;10.18;;;1.85;;
66559;SDS011;53413;49.878;8.142;2024-01-27T12:04:29;8.17;;;2.07;;
66559;SDS011;53413;49.878;8.142;2024-01-27T12:06:55;6.43;;;2.10;;
66559;SDS011;53413;49.878;8.142;2024-01-27T12:09:21;8.53;;;2.30;;
66559;SDS011;53413;49.878;8.142;2024-01-27T12:11:47;10.00;;;2.15;;
66559;SDS011;53413;49.878;8.142;2024-01-27T12:14:12;7.37;;;2.07;;
66559;SDS011;53413;49.878;8.142;2024-01-27T12:16:39;8.52;;;2.13;;
66559;SDS011;53413;49.878;8.142;2024-01-27T12:19:06;6.78;;;2.22;;
66559;SDS011;53413;49.878;8.142;2024-01-27T12:21:35;10.10;;;2.13;;
66559;SDS011;53413;49.878;8.142;2024-01-27T12:24:01;9.13;;;2.38;;
66559;SDS011;53413;49.878;8.142;2024-01-27T12:26:28;9.70;;;2.07;;
66559;SDS011;53413;49.878;8.142;2024-01-27T12:28:54;8.82;;;2.45;;
66559;SDS011;53413;49.878;8.142;2024-01-27T12:31:23;10.10;;;2.40;;
66559;SDS011;53413;49.878;8.142;2024-01-27T12:33:52;7.68;;;2.05;;
66559;SDS011;53413;49.878;8.142;2024-01-27T12:36:19;7.90;;;2.05;;
66559;SDS011;53413;49.878;8.142;2024-01-27T12:39:08;10.65;;;2.35;;
66559;SDS011;53413;49.878;8.142;2024-01-27T12:41:34;9.15;;;2.30;;
66559;SDS011;53413;49.878;8.142;2024-01-27T12:43:59;14.80;;;2.73;;
66559;SDS011;53413;49.878;8.142;2024-01-27T12:46:25;12.52;;;2.45;;
66559;SDS011;53413;49.878;8.142;2024-01-27T12:48:51;8.77;;;1.87;;
66559;SDS011;53413;49.878;8.142;2024-01-27T12:51:16;7.07;;;1.90;;
66559;SDS011;53413;49.878;8.142;2024-01-27T12:53:42;7.78;;;1.70;;
66559;SDS011;53413;49.878;8.142;2024-01-27T12:56:11;9.83;;;1.83;;
66559;SDS011;53413;49.878;8.142;2024-01-27T12:58:38;6.97;;;1.83;;
66559;SDS011;53413;49.878;8.142;2024-01-27T13:01:05;9.10;;;2.13;;
66559;SDS011;53413;49.878;8.142;2024-01-27T13:03:31;7.50;;;2.17;;
66559;SDS011;53413;49.878;8.142;2024-01-27T13:05:56;9.83;;;2.00;;
66559;SDS011;53413;49.878;8.142;2024-01-27T13:08:22;7.75;;;1.92;;
66559;SDS011;53413;49.878;8.142;2024-01-27T13:10:48;7.20;;;1.90;;
66559;SDS011;53413;49.878;8.142;2024-01-27T13:13:14;10.30;;;1.90;;
66559;SDS011;53413;49.878;8.142;2024-01-27T13:15:39;9.10;;;1.53;;
66559;SDS011;53413;49.878;8.142;2024-01-27T13:18:05;7.17;;;1.50;;
66559;SDS011;53413;49.878;8.142;2024-01-27T13:20:31;6.40;;;1.73;;
66559;SDS011;53413;49.878;8.142;2024-01-27T13:22:56;10.07;;;1.88;;
66559;SDS011;53413;49.878;8.142;2024-01-27T13:25:22;5.97;;;1.55;;
66559;SDS011;53413;49.878;8.142;2024-01-27T13:27:47;6.50;;;1.50;;
66559;SDS011;53413;49.878;8.142;2024-01-27T13:30:13;9.63;;;1.60;;
66559;SDS011;53413;49.878;8.142;2024-01-27T13:32:38;7.43;;;1.65;;
66559;SDS011;53413;49.878;8.142;2024-01-27T13:35:04;8.87;;;1.80;;
66559;SDS011;53413;49.878;8.142;2024-01-27T13:37:30;9.23;;;1.55;;
66559;SDS011;53413;49.878;8.142;2024-01-27T13:39:59;4.18;;;1.50;;
66559;SDS011;53413;49.878;8.142;2024-01-27T13:42:25;5.97;;;1.63;;
66559;SDS011;53413;49.878;8.142;2024-01-27T13:44:50;7.93;;;1.60;;
66559;SDS011;53413;49.878;8.142;2024-01-27T13:47:15;9.30;;;1.73;;
66559;SDS011;53413;49.878;8.142;2024-01-27T13:49:41;9.27;;;1.60;;
66559;SDS011;53413;49.878;8.142;2024-01-27T13:52:06;8.30;;;1.50;;
66559;SDS011;53413;49.878;8.142;2024-01-27T13:54:32;9.10;;;2.07;;
66559;SDS011;53413;49.878;8.142;2024-01-27T13:56:59;10.55;;;2.10;;
66559;SDS011;53413;49.878;8.142;2024-01-27T13:59:25;9.45;;;2.10;;
66559;SDS011;53413;49.878;8.142;2024-01-27T14:01:51;8.47;;;1.87;;
66559;SDS011;53413;49.878;8.142;2024-01-27T14:04:18;8.57;;;1.80;;
66559;SDS011;53413;49.878;8.142;2024-01-27T14:06:43;8.80;;;1.90;;
66559;SDS011;53413;49.878;8.142;2024-01-27T14:09:08;9.23;;;2.00;;
66559;SDS011;53413;49.878;8.142;2024-01-27T14:11:34;7.47;;;2.13;;
66559;SDS011;53413;49.878;8.142;2024-01-27T14:13:59;9.70;;;2.10;;
66559;SDS011;53413;49.878;8.142;2024-01-27T14:16:25;10.33;;;2.10;;
66559;SDS011;53413;49.878;8.142;2024-01-27T14:18:51;8.43;;;1.85;;
66559;SDS011;53413;49.878;8.142;2024-01-27T14:21:16;8.33;;;2.10;;
66559;SDS011;53413;49.878;8.142;2024-01-27T14:23:41;7.37;;;2.10;;
66559;SDS011;53413;49.878;8.142;2024-01-27T14:26:07;7.17;;;2.10;;
66559;SDS011;53413;49.878;8.142;2024-01-27T14:28:39;6.63;;;1.95;;
66559;SDS011;53413;49.878;8.142;2024-01-27T14:31:05;9.63;;;2.20;;
66559;SDS011;53413;49.878;8.142;2024-01-27T14:33:31;6.47;;;1.63;;
66559;SDS011;53413;49.878;8.142;2024-01-27T14:35:56;5.70;;;1.70;;
66559;SDS011;53413;49.878;8.142;2024-01-27T14:38:22;5.63;;;1.20;;
66559;SDS011;53413;49.878;8.142;2024-01-27T14:40:47;7.00;;;1.60;;
66559;SDS011;53413;49.878;8.142;2024-01-27T14:43:12;5.37;;;1.37;;